Thorco Crystal — V2BP9 — position and weather

sailwx.info

Track history (hours):
 
Tides and Currents Weather Stations Pressure Air Temp Water Temp Dewpoint Dewpoint Depression Visibility Wind Speed Wind Dir Waves Ship Positions

Thorco Crystal

Last reported at 2014-Sep-20 08:30 UTC. Time now 2014-Sep-21 02:00 UTC.
Position N 38°34' W 009°38'.

Length 145 m; draft 6.5 m.

Type: Cargo ship. MMSI: 304736000.

Date/timePositionNaut miles runAvg speedWind from/ knotsBaromVisibWave heightAir tempDewpointWater temp
2014-Sep-20 08:30N 38°34' W 009°38'1111.7
2014-Sep-20 07:33N 38°36' W 009°24'1010.4
2014-Sep-20 06:33N 38°41' W 009°13'1 0.9
2014-Sep-20 05:33N 38°41' W 009°12'0 0.0
2014-Sep-20 04:33N 38°41' W 009°12'0 0.0
2014-Sep-20 03:32N 38°41' W 009°12'0 0.0
2014-Sep-20 02:33N 38°41' W 009°12'0 0.0
2014-Sep-20 01:33N 38°41' W 009°12'0 0.2
2014-Sep-20 00:33N 38°41' W 009°11'0 0.0
2014-Sep-19 23:32N 38°41' W 009°11'0 0.0
2014-Sep-19 22:32N 38°41' W 009°11'0 0.0
2014-Sep-19 21:32N 38°41' W 009°11'0 0.1
2014-Sep-19 20:33N 38°41' W 009°12'0 0.1
2014-Sep-19 19:32N 38°41' W 009°12'0 0.0
2014-Sep-19 18:32N 38°41' W 009°12'0 0.0
2014-Sep-19 17:32N 38°41' W 009°12'0 0.0
2014-Sep-19 16:33N 38°41' W 009°12'5 4.9
2014-Sep-19 15:33N 38°41' W 009°18'1111.0
2014-Sep-19 14:33N 38°36' W 009°30'340 8.1
2014-Sep-17 20:33N 43°45' W 006°20'1313.1
2014-Sep-17 19:33N 43°39' W 006°04'5 0.1
2014-Sep-15 22:18N 43°36' W 005°58'1 0.2
2014-Sep-15 19:16N 43°37' W 005°58'  
2014-Sep-13 08:27N 43°41' W 006°15'  
Track history (hours):
 
Tides and Currents Weather Stations Pressure Air Temp Water Temp Dewpoint Dewpoint Depression Visibility Wind Speed Wind Dir Waves Ship Positions

Thorco Crystal

Last reported at 2014-Sep-20 08:30 UTC. Time now 2014-Sep-21 02:00 UTC.
Position N 38°34' W 009°38'.

Length 145 m; draft 6.5 m.

Type: Cargo ship. MMSI: 304736000.

Date/timePositionNaut miles runAvg speedWind from/ knotsBaromVisibWave heightAir tempDewpointWater temp
2014-Sep-20 08:30N 38°34' W 009°38'1111.7
2014-Sep-20 07:33N 38°36' W 009°24'1010.4
2014-Sep-20 06:33N 38°41' W 009°13'1 0.9
2014-Sep-20 05:33N 38°41' W 009°12'0 0.0
2014-Sep-20 04:33N 38°41' W 009°12'0 0.0
2014-Sep-20 03:32N 38°41' W 009°12'0 0.0
2014-Sep-20 02:33N 38°41' W 009°12'0 0.0
2014-Sep-20 01:33N 38°41' W 009°12'0 0.2
2014-Sep-20 00:33N 38°41' W 009°11'0 0.0
2014-Sep-19 23:32N 38°41' W 009°11'0 0.0
2014-Sep-19 22:32N 38°41' W 009°11'0 0.0
2014-Sep-19 21:32N 38°41' W 009°11'0 0.1
2014-Sep-19 20:33N 38°41' W 009°12'0 0.1
2014-Sep-19 19:32N 38°41' W 009°12'0 0.0
2014-Sep-19 18:32N 38°41' W 009°12'0 0.0
2014-Sep-19 17:32N 38°41' W 009°12'0 0.0
2014-Sep-19 16:33N 38°41' W 009°12'5 4.9
2014-Sep-19 15:33N 38°41' W 009°18'1111.0
2014-Sep-19 14:33N 38°36' W 009°30'340 8.1
2014-Sep-17 20:33N 43°45' W 006°20'1313.1
2014-Sep-17 19:33N 43°39' W 006°04'5 0.1
2014-Sep-15 22:18N 43°36' W 005°58'1 0.2
2014-Sep-15 19:16N 43°37' W 005°58'  
2014-Sep-13 08:27N 43°41' W 006°15'  

Dump ship's entire track history